createdAt,value
2023-05-09T00:00:00.293Z,32.72
2023-05-09T00:02:30.032Z,35.75
2023-05-09T00:04:58.428Z,13.93
2023-05-09T00:07:26.427Z,19.10
2023-05-09T00:09:54.442Z,20.98
2023-05-09T00:12:22.832Z,17.52
2023-05-09T00:14:52.028Z,16.12
2023-05-09T00:17:20.114Z,16.08
2023-05-09T00:19:49.113Z,15.88
2023-05-09T00:22:18.203Z,11.23
2023-05-09T00:24:46.135Z,16.15
2023-05-09T00:27:14.727Z,7.60
2023-05-09T00:29:43.921Z,11.12
2023-05-09T00:32:12.450Z,11.25
2023-05-09T00:34:40.903Z,18.23
2023-05-09T00:37:08.989Z,18.83
2023-05-09T00:39:37.045Z,23.15
2023-05-09T00:42:05.544Z,20.75
2023-05-09T00:44:33.339Z,25.62
2023-05-09T00:47:01.432Z,17.77
2023-05-09T00:49:30.046Z,21.27
2023-05-09T00:51:58.603Z,22.27
2023-05-09T00:54:28.978Z,20.77
2023-05-09T00:56:57.569Z,22.60
2023-05-09T00:59:25.747Z,27.55
2023-05-09T01:01:53.871Z,25.58
2023-05-09T01:04:22.265Z,24.23
2023-05-09T01:07:19.701Z,23.80
2023-05-09T01:10:10.753Z,19.70
2023-05-09T01:13:19.432Z,19.08
2023-05-09T01:16:00.292Z,13.90
2023-05-09T01:18:40.680Z,24.90
2023-05-09T01:21:14.556Z,16.48
2023-05-09T01:23:51.229Z,16.90
2023-05-09T01:26:51.973Z,20.88
2023-05-09T01:29:39.982Z,19.12
2023-05-09T01:32:20.274Z,19.40
2023-05-09T01:34:52.285Z,20.55
2023-05-09T01:37:26.148Z,21.90
2023-05-09T01:39:58.842Z,23.70
2023-05-09T01:42:31.432Z,24.25
2023-05-09T01:45:00.553Z,22.93
2023-05-09T01:47:30.169Z,12.88
2023-05-09T01:49:58.604Z,21.80
2023-05-09T01:52:27.459Z,14.27
2023-05-09T01:54:56.804Z,10.98
2023-05-09T01:57:25.547Z,20.15
2023-05-09T01:59:54.675Z,23.95
2023-05-09T02:02:23.705Z,23.65
2023-05-09T02:04:54.063Z,21.87
2023-05-09T02:07:24.980Z,18.02
2023-05-09T02:09:56.841Z,11.63
2023-05-09T02:12:25.139Z,20.00
2023-05-09T02:14:54.240Z,24.67
2023-05-09T02:17:22.536Z,23.38
2023-05-09T02:19:50.972Z,22.48
2023-05-09T02:22:41.617Z,20.45
2023-05-09T02:25:14.685Z,22.23
2023-05-09T02:27:45.907Z,19.45
2023-05-09T02:30:25.564Z,15.48
2023-05-09T02:33:01.989Z,10.27
2023-05-09T02:35:30.829Z,14.75
2023-05-09T02:38:00.627Z,22.40
2023-05-09T02:40:31.245Z,21.27
2023-05-09T02:42:59.568Z,20.95
2023-05-09T02:45:28.842Z,24.25
2023-05-09T02:47:56.877Z,26.90
2023-05-09T02:50:25.418Z,23.90
2023-05-09T02:52:53.420Z,29.20
2023-05-09T02:55:21.629Z,24.98
2023-05-09T02:57:56.217Z,24.37
2023-05-09T03:00:31.135Z,29.15
2023-05-09T03:03:00.503Z,22.65
2023-05-09T03:05:28.840Z,23.60
2023-05-09T03:07:56.854Z,27.50
2023-05-09T03:10:25.334Z,28.45
2023-05-09T03:12:53.478Z,27.37
2023-05-09T03:15:21.890Z,29.40
2023-05-09T03:17:50.265Z,31.33
2023-05-09T03:20:18.306Z,29.98
2023-05-09T03:22:46.241Z,36.88
2023-05-09T03:25:14.974Z,30.88
2023-05-09T03:27:43.094Z,31.42
2023-05-09T03:30:12.409Z,31.08
2023-05-09T03:32:41.584Z,28.98
2023-05-09T03:35:09.757Z,27.45
2023-05-09T03:37:38.195Z,27.95
2023-05-09T03:40:07.896Z,26.05
2023-05-09T03:42:37.791Z,25.08
2023-05-09T03:45:06.645Z,19.98
2023-05-09T03:47:35.660Z,21.95
2023-05-09T03:50:04.567Z,18.60
2023-05-09T03:52:33.154Z,17.35
2023-05-09T03:55:01.893Z,18.37
2023-05-09T03:57:36.200Z,16.10
2023-05-09T04:00:06.548Z,11.50
2023-05-09T04:02:43.318Z,10.73
2023-05-09T04:05:17.158Z,10.70
2023-05-09T04:07:58.391Z,11.52
2023-05-09T04:10:39.094Z,11.48
2023-05-09T04:13:07.582Z,18.55
2023-05-09T04:15:36.004Z,16.80
2023-05-09T04:18:05.065Z,21.17
2023-05-09T04:20:33.290Z,10.82
2023-05-09T04:23:09.073Z,17.65
2023-05-09T04:25:48.577Z,14.95
2023-05-09T04:28:17.716Z,14.73
2023-05-09T04:30:50.382Z,18.83
2023-05-09T04:33:21.632Z,12.45
2023-05-09T04:35:51.581Z,14.77
2023-05-09T04:38:19.911Z,10.02
2023-05-09T04:40:47.784Z,7.72
2023-05-09T04:43:16.189Z,10.88
2023-05-09T04:45:45.770Z,12.95
2023-05-09T04:48:14.692Z,12.68
2023-05-09T04:50:43.027Z,9.55
2023-05-09T04:53:11.405Z,15.05
2023-05-09T04:55:39.515Z,9.48
2023-05-09T04:58:09.960Z,8.75
2023-05-09T05:03:36.402Z,9.80
2023-05-09T05:06:05.840Z,10.77
2023-05-09T05:08:34.726Z,11.52
2023-05-09T05:11:02.955Z,11.75
2023-05-09T05:13:31.093Z,10.55
2023-05-09T05:16:00.494Z,8.73
2023-05-09T05:18:28.427Z,10.52
2023-05-09T05:20:56.514Z,9.45
2023-05-09T05:23:25.608Z,6.32
2023-05-09T05:25:54.034Z,6.55
2023-05-09T05:28:22.224Z,8.00
2023-05-09T05:30:50.676Z,6.57
2023-05-09T05:33:18.755Z,5.78
2023-05-09T05:35:47.365Z,5.68
2023-05-09T05:38:15.765Z,5.03
2023-05-09T05:40:48.512Z,4.57
2023-05-09T05:43:17.123Z,4.25
2023-05-09T05:45:45.548Z,4.43
2023-05-09T05:48:15.195Z,4.85
2023-05-09T05:50:43.762Z,4.22
2023-05-09T05:53:12.782Z,4.85
2023-05-09T05:55:41.602Z,4.78
2023-05-09T05:58:10.430Z,4.25
2023-05-09T06:00:38.613Z,4.93
2023-05-09T06:03:07.638Z,3.22
2023-05-09T06:05:37.044Z,3.17
2023-05-09T06:08:06.849Z,3.75
2023-05-09T06:10:35.263Z,7.05
2023-05-09T06:13:15.484Z,3.90
2023-05-09T06:15:44.777Z,2.60
2023-05-09T06:18:12.968Z,3.72
2023-05-09T06:20:41.272Z,4.20
2023-05-09T06:23:09.782Z,2.42
2023-05-09T06:25:37.637Z,4.80
2023-05-09T06:28:05.815Z,2.65
2023-05-09T06:30:34.504Z,2.35
2023-05-09T06:33:03.112Z,2.22
2023-05-09T06:35:31.314Z,1.95
2023-05-09T06:37:59.628Z,2.22
2023-05-09T06:40:27.937Z,2.28
2023-05-09T06:42:56.155Z,1.77
2023-05-09T06:45:24.526Z,3.40
2023-05-09T06:47:52.455Z,2.55
2023-05-09T06:50:20.812Z,2.35
2023-05-09T06:52:49.268Z,2.50
2023-05-09T06:55:17.608Z,3.47
2023-05-09T06:57:45.730Z,2.65
2023-05-09T07:00:15.266Z,1.45
2023-05-09T07:02:43.881Z,1.15
2023-05-09T07:05:12.718Z,4.95
2023-05-09T07:07:41.551Z,2.17
2023-05-09T07:10:12.301Z,2.45
2023-05-09T07:12:41.866Z,2.12
2023-05-09T07:15:11.493Z,1.55
2023-05-09T07:17:39.821Z,2.15
2023-05-09T07:20:09.132Z,2.33
2023-05-09T07:22:37.973Z,1.33
2023-05-09T07:25:09.128Z,1.77
2023-05-09T07:27:37.761Z,2.97
2023-05-09T07:30:07.154Z,2.10
2023-05-09T07:32:36.566Z,2.87
2023-05-09T07:35:05.268Z,2.92
2023-05-09T07:37:35.292Z,3.00
2023-05-09T07:40:04.087Z,1.55
2023-05-09T07:42:34.130Z,1.83
2023-05-09T07:45:04.604Z,3.53
2023-05-09T07:47:34.530Z,2.25
2023-05-09T07:50:02.735Z,1.52
2023-05-09T07:52:32.029Z,1.80
2023-05-09T07:55:00.693Z,2.35
2023-05-09T07:57:29.319Z,1.95
2023-05-09T07:59:57.584Z,4.15
2023-05-09T08:02:26.498Z,2.95
2023-05-09T08:04:55.282Z,2.30
2023-05-09T08:07:23.590Z,3.05
2023-05-09T08:09:51.705Z,1.70
2023-05-09T08:12:20.373Z,2.45
2023-05-09T08:14:48.436Z,1.98
2023-05-09T08:17:28.929Z,2.33
2023-05-09T08:19:57.642Z,1.42
2023-05-09T08:22:25.932Z,2.05
2023-05-09T08:24:54.152Z,2.15
2023-05-09T08:27:27.031Z,2.70
2023-05-09T08:29:55.369Z,2.33
2023-05-09T08:32:23.762Z,1.60
2023-05-09T08:34:52.626Z,2.20
2023-05-09T08:37:21.068Z,1.23
2023-05-09T08:39:49.408Z,1.65
2023-05-09T08:42:22.419Z,1.77
2023-05-09T08:44:51.209Z,1.35
2023-05-09T08:47:21.724Z,2.22
2023-05-09T08:49:52.267Z,2.53
2023-05-09T08:52:22.128Z,2.47
2023-05-09T08:55:05.673Z,2.45
2023-05-09T08:57:38.512Z,2.42
2023-05-09T09:00:07.740Z,2.25
2023-05-09T09:02:37.979Z,3.35
2023-05-09T09:07:39.706Z,2.12
2023-05-09T09:10:11.340Z,3.08
2023-05-09T09:12:41.504Z,3.42
2023-05-09T09:15:17.557Z,2.55
2023-05-09T09:17:51.270Z,1.87
2023-05-09T09:20:22.913Z,2.80
2023-05-09T09:22:54.121Z,1.20
2023-05-09T09:25:22.275Z,1.52
2023-05-09T09:27:50.428Z,1.37
2023-05-09T09:30:19.383Z,2.00
2023-05-09T09:32:47.476Z,2.72
2023-05-09T09:35:15.662Z,0.82
2023-05-09T09:37:44.320Z,3.65
2023-05-09T09:40:13.651Z,4.62
2023-05-09T09:42:47.606Z,2.50
2023-05-09T09:45:18.242Z,3.53
2023-05-09T09:47:48.961Z,1.95
2023-05-09T09:50:19.225Z,3.72
2023-05-09T09:52:51.981Z,1.87
2023-05-09T09:55:22.454Z,1.55
2023-05-09T09:57:51.999Z,1.10
2023-05-09T10:00:27.683Z,2.37
2023-05-09T10:02:58.282Z,2.05
2023-05-09T10:05:31.710Z,1.85
2023-05-09T10:08:02.610Z,3.15
2023-05-09T10:10:33.588Z,1.50
2023-05-09T10:13:10.044Z,2.75
2023-05-09T10:15:52.116Z,1.83
2023-05-09T10:18:27.994Z,2.30
2023-05-09T10:21:01.436Z,2.00
2023-05-09T10:23:39.040Z,3.17
2023-05-09T10:26:18.059Z,3.28
2023-05-09T10:28:50.231Z,2.62
2023-05-09T10:31:39.744Z,1.40
2023-05-09T10:34:12.641Z,1.73
2023-05-09T10:36:40.900Z,2.92
2023-05-09T10:39:09.606Z,1.27
2023-05-09T10:41:39.317Z,3.15
2023-05-09T10:44:07.832Z,2.17
2023-05-09T10:46:37.573Z,4.40
2023-05-09T10:49:06.290Z,5.78
2023-05-09T10:51:35.262Z,4.10
2023-05-09T10:54:18.409Z,2.85
2023-05-09T10:56:46.989Z,1.58
2023-05-09T10:59:39.683Z,4.00
2023-05-09T11:02:14.808Z,1.77
2023-05-09T11:04:44.764Z,2.50
2023-05-09T11:07:27.447Z,2.90
2023-05-09T11:10:17.157Z,3.72
2023-05-09T11:12:59.687Z,2.05
2023-05-09T11:18:08.028Z,2.15
2023-05-09T11:20:45.125Z,1.70
2023-05-09T11:23:17.702Z,2.00
2023-05-09T11:25:50.218Z,1.50
2023-05-09T11:28:29.365Z,2.62
2023-05-09T11:31:14.438Z,1.83
2023-05-09T11:33:45.673Z,1.55
2023-05-09T11:36:32.536Z,2.85
2023-05-09T11:39:03.576Z,1.73
2023-05-09T11:41:39.953Z,2.30
2023-05-09T11:44:19.231Z,3.08
2023-05-09T11:46:49.510Z,2.37
2023-05-09T11:52:06.189Z,2.55
2023-05-09T11:54:34.297Z,2.95
2023-05-09T11:57:02.507Z,2.40
2023-05-09T11:59:32.387Z,2.55
2023-05-09T12:02:08.027Z,2.80
2023-05-09T12:04:37.364Z,1.85
2023-05-09T12:07:05.588Z,1.92
2023-05-09T12:09:35.806Z,2.25
2023-05-09T12:12:14.728Z,2.65
2023-05-09T12:14:42.872Z,2.83
2023-05-09T12:17:11.669Z,2.08
2023-05-09T12:19:39.778Z,2.70
2023-05-09T12:22:08.162Z,2.25
2023-05-09T12:24:40.186Z,2.25
2023-05-09T12:27:08.309Z,2.40
2023-05-09T12:29:37.042Z,2.92
2023-05-09T12:32:05.638Z,1.85
2023-05-09T12:34:34.047Z,3.05
2023-05-09T12:37:04.141Z,3.10
2023-05-09T12:39:32.448Z,4.10
2023-05-09T12:42:02.269Z,2.70
2023-05-09T12:44:31.123Z,2.03
2023-05-09T12:47:04.517Z,3.22
2023-05-09T12:49:37.535Z,2.12
2023-05-09T12:52:07.805Z,1.40
2023-05-09T12:54:38.112Z,2.70
2023-05-09T12:57:06.940Z,1.80
2023-05-09T12:59:35.303Z,3.60
2023-05-09T13:02:04.210Z,2.30
2023-05-09T13:04:32.502Z,2.90
2023-05-09T13:07:01.138Z,2.22
2023-05-09T13:09:30.126Z,2.67
2023-05-09T13:11:58.427Z,2.00
2023-05-09T13:14:28.068Z,1.90
2023-05-09T13:16:57.681Z,2.03
2023-05-09T13:19:26.098Z,3.28
2023-05-09T13:21:55.938Z,2.75
2023-05-09T13:24:24.534Z,3.83
2023-05-09T13:26:52.690Z,2.05
2023-05-09T13:29:20.682Z,2.78
2023-05-09T13:31:49.657Z,1.70
2023-05-09T13:34:18.002Z,3.50
2023-05-09T13:36:46.219Z,2.28
2023-05-09T13:39:15.168Z,2.33
2023-05-09T13:41:43.416Z,2.97
2023-05-09T13:44:11.554Z,3.95
2023-05-09T13:46:40.432Z,3.30
2023-05-09T13:49:08.980Z,2.65
2023-05-09T13:51:37.291Z,2.35
2023-05-09T13:54:10.993Z,2.08
2023-05-09T13:56:59.329Z,3.35
2023-05-09T13:59:34.623Z,2.20
2023-05-09T14:02:37.320Z,2.28
2023-05-09T14:05:28.281Z,2.17
2023-05-09T14:08:02.592Z,3.12
2023-05-09T14:10:31.221Z,7.25
2023-05-09T14:15:46.890Z,3.33
2023-05-09T14:18:20.089Z,1.70
2023-05-09T14:23:37.990Z,3.08
2023-05-09T14:26:07.288Z,2.12
2023-05-09T14:28:36.703Z,3.95
2023-05-09T14:31:05.085Z,2.78
2023-05-09T14:33:35.402Z,2.95
2023-05-09T14:36:04.301Z,3.37
2023-05-09T14:38:33.754Z,4.53
2023-05-09T14:41:02.769Z,3.67
2023-05-09T14:43:31.065Z,2.15
2023-05-09T14:45:59.941Z,4.32
2023-05-09T14:48:28.878Z,2.12
2023-05-09T14:50:57.462Z,2.33
2023-05-09T14:53:26.358Z,2.78
2023-05-09T14:55:55.818Z,3.78
2023-05-09T14:58:24.869Z,2.58
2023-05-09T15:00:54.178Z,3.17
2023-05-09T15:03:22.692Z,2.05
2023-05-09T15:05:54.067Z,2.33
2023-05-09T15:08:27.421Z,4.50
2023-05-09T15:10:55.798Z,3.62
2023-05-09T15:13:24.443Z,4.15
2023-05-09T15:15:52.929Z,4.50
2023-05-09T15:18:23.740Z,3.55
2023-05-09T15:20:52.613Z,4.12
2023-05-09T15:23:20.823Z,4.87
2023-05-09T15:25:49.487Z,4.87
2023-05-09T15:28:18.130Z,3.00
2023-05-09T15:30:46.862Z,3.45
2023-05-09T15:33:15.064Z,3.60
2023-05-09T15:35:44.566Z,4.32
2023-05-09T15:38:13.107Z,2.08
2023-05-09T15:40:41.803Z,3.65
2023-05-09T15:43:10.429Z,3.78
2023-05-09T15:45:44.046Z,3.58
2023-05-09T15:48:13.947Z,4.15
2023-05-09T15:53:31.772Z,2.90
2023-05-09T15:56:00.139Z,2.80
2023-05-09T16:01:15.057Z,5.32
2023-05-09T16:03:44.075Z,2.72
2023-05-09T16:06:13.238Z,2.53
2023-05-09T16:08:41.415Z,2.15
2023-05-09T16:11:10.619Z,3.37
2023-05-09T16:13:39.057Z,4.47
2023-05-09T16:16:07.581Z,7.45
2023-05-09T16:18:36.621Z,6.55
2023-05-09T16:21:05.122Z,5.87
2023-05-09T16:23:33.417Z,4.03
2023-05-09T16:26:02.160Z,8.48
2023-05-09T16:28:30.619Z,34.75
2023-05-09T16:31:00.723Z,9.55
2023-05-09T16:33:30.392Z,11.18
2023-05-09T16:36:37.570Z,7.90
2023-05-09T16:42:14.973Z,16.20
2023-05-09T16:44:43.463Z,8.05
2023-05-09T16:47:11.807Z,7.65
2023-05-09T16:49:39.854Z,3.92
2023-05-09T16:52:08.502Z,8.13
2023-05-09T16:54:36.780Z,13.25
2023-05-09T16:57:05.089Z,15.77
2023-05-09T16:59:33.746Z,21.70
2023-05-09T17:02:02.123Z,29.05
2023-05-09T17:04:30.484Z,22.90
2023-05-09T17:06:59.191Z,27.62
2023-05-09T17:09:27.505Z,30.02
2023-05-09T17:11:55.531Z,27.10
2023-05-09T17:14:27.209Z,19.92
2023-05-09T17:16:55.742Z,23.87
2023-05-09T17:19:24.189Z,27.58
2023-05-09T17:21:52.512Z,30.25
2023-05-09T17:24:20.769Z,36.70
2023-05-09T17:26:50.631Z,52.05
2023-05-09T17:29:18.678Z,62.42
2023-05-09T17:31:46.938Z,64.40
2023-05-09T17:34:15.541Z,91.57
2023-05-09T17:36:43.672Z,166.68
2023-05-09T17:39:12.204Z,252.15
2023-05-09T17:41:41.849Z,308.85
2023-05-09T17:44:10.089Z,256.85
2023-05-09T17:46:38.967Z,134.30
2023-05-09T17:49:10.625Z,129.77
2023-05-09T17:54:24.997Z,199.60
2023-05-09T17:56:59.407Z,172.27
2023-05-09T17:59:28.974Z,133.57
2023-05-09T18:01:57.271Z,116.57
2023-05-09T18:04:26.659Z,56.42
2023-05-09T18:06:59.024Z,56.53
2023-05-09T18:09:30.450Z,37.25
2023-05-09T18:12:01.101Z,69.32
2023-05-09T18:14:33.799Z,110.88
2023-05-09T18:17:03.567Z,224.68
2023-05-09T18:19:32.765Z,233.90
2023-05-09T18:22:01.955Z,242.23
2023-05-09T18:24:30.225Z,129.45
2023-05-09T18:29:49.065Z,128.62
2023-05-09T18:32:19.096Z,126.70
2023-05-09T18:34:48.870Z,173.90
2023-05-09T18:37:18.199Z,124.95
2023-05-09T18:42:34.873Z,125.85
2023-05-09T18:45:04.773Z,265.08
2023-05-09T18:47:33.150Z,307.40
2023-05-09T18:50:02.856Z,122.35
2023-05-09T18:52:33.052Z,93.72
2023-05-09T18:55:01.714Z,108.97
2023-05-09T18:57:31.896Z,72.43
2023-05-09T19:00:00.172Z,47.88
2023-05-09T19:02:30.759Z,116.37
2023-05-09T19:05:01.109Z,105.75
2023-05-09T19:07:30.198Z,133.07
2023-05-09T19:09:58.804Z,79.68
2023-05-09T19:12:27.216Z,75.68
2023-05-09T19:14:57.179Z,91.93
2023-05-09T19:17:25.454Z,76.03
2023-05-09T19:19:53.915Z,68.40
2023-05-09T19:22:22.628Z,99.28
2023-05-09T19:24:52.014Z,88.40
2023-05-09T19:27:20.971Z,59.30
2023-05-09T19:29:50.061Z,67.47
2023-05-09T19:32:21.290Z,106.32
2023-05-09T19:34:49.804Z,206.02
2023-05-09T19:37:17.938Z,161.45
2023-05-09T19:39:45.983Z,106.93
2023-05-09T19:42:15.150Z,49.28
2023-05-09T19:44:43.371Z,134.15
2023-05-09T19:47:11.579Z,132.35
2023-05-09T19:49:41.232Z,97.00
2023-05-09T19:52:09.656Z,92.00
2023-05-09T19:54:37.826Z,144.10
2023-05-09T19:57:07.358Z,143.52
2023-05-09T19:59:35.556Z,142.87
2023-05-09T20:02:19.147Z,106.43
2023-05-09T20:04:50.263Z,121.68
2023-05-09T20:07:18.628Z,152.02
2023-05-09T20:09:46.947Z,189.15
2023-05-09T20:12:15.632Z,209.55
2023-05-09T20:14:44.689Z,121.00
2023-05-09T20:17:12.764Z,69.07
2023-05-09T20:19:41.331Z,84.10
2023-05-09T20:22:09.493Z,64.32
2023-05-09T20:24:37.537Z,78.82
2023-05-09T20:27:05.837Z,42.70
2023-05-09T20:29:33.722Z,53.87
2023-05-09T20:32:01.931Z,79.18
2023-05-09T20:34:30.411Z,162.27
2023-05-09T20:36:58.508Z,118.90
2023-05-09T20:39:27.203Z,80.22
2023-05-09T20:41:56.332Z,46.92
2023-05-09T20:44:24.284Z,39.92
2023-05-09T20:46:53.074Z,29.40
2023-05-09T20:49:21.519Z,37.83
2023-05-09T20:51:49.479Z,34.30
2023-05-09T20:54:18.134Z,31.35
2023-05-09T20:56:46.816Z,30.50
2023-05-09T20:59:14.933Z,46.67
2023-05-09T21:01:44.199Z,72.72
2023-05-09T21:04:12.731Z,73.05
2023-05-09T21:06:40.700Z,41.05
2023-05-09T21:09:09.666Z,43.15
2023-05-09T21:11:38.985Z,42.00
2023-05-09T21:14:08.627Z,30.35
2023-05-09T21:16:36.561Z,43.42
2023-05-09T21:19:05.668Z,52.88
2023-05-09T21:21:33.636Z,47.55
2023-05-09T21:24:04.518Z,42.85
2023-05-09T21:26:32.911Z,44.38
2023-05-09T21:29:00.992Z,60.33
2023-05-09T21:31:29.071Z,45.40
2023-05-09T21:33:58.432Z,35.92
2023-05-09T21:36:26.427Z,31.12
2023-05-09T21:38:54.380Z,28.33
2023-05-09T21:41:22.784Z,28.08
2023-05-09T21:43:50.793Z,26.85
2023-05-09T21:46:18.809Z,23.87
2023-05-09T21:48:47.935Z,25.58
2023-05-09T21:51:15.807Z,23.02
2023-05-09T21:53:43.775Z,24.58
2023-05-09T21:56:12.262Z,31.15
2023-05-09T21:58:40.251Z,18.33
2023-05-09T22:01:08.103Z,23.48
2023-05-09T22:03:36.873Z,21.58
2023-05-09T22:06:04.875Z,20.70
2023-05-09T22:08:32.793Z,18.95
2023-05-09T22:11:01.138Z,24.90
2023-05-09T22:13:29.211Z,25.58
2023-05-09T22:15:57.331Z,35.03
2023-05-09T22:18:25.672Z,25.67
2023-05-09T22:20:53.643Z,23.20
2023-05-09T22:23:21.670Z,39.45
2023-05-09T22:25:49.946Z,44.85
2023-05-09T22:28:17.901Z,55.80
2023-05-09T22:30:45.857Z,86.60
2023-05-09T22:33:14.339Z,42.47
2023-05-09T22:35:42.521Z,30.40
2023-05-09T22:38:10.413Z,41.90
2023-05-09T22:40:38.882Z,39.92
2023-05-09T22:43:06.940Z,50.28
2023-05-09T22:45:34.962Z,55.53
2023-05-09T22:48:03.953Z,51.60
2023-05-09T22:50:32.199Z,39.60
2023-05-09T22:53:00.684Z,53.38
2023-05-09T22:55:29.223Z,48.45
2023-05-09T22:57:57.213Z,46.88
2023-05-09T23:00:25.204Z,43.00
2023-05-09T23:02:53.798Z,45.50
2023-05-09T23:05:22.267Z,44.38
2023-05-09T23:07:50.417Z,43.40
2023-05-09T23:10:18.916Z,45.25
2023-05-09T23:12:48.423Z,42.95
2023-05-09T23:15:16.496Z,35.60
2023-05-09T23:17:44.831Z,32.45
2023-05-09T23:20:12.947Z,28.77
2023-05-09T23:22:40.991Z,28.62
2023-05-09T23:25:09.820Z,30.27
2023-05-09T23:27:41.596Z,24.50
2023-05-09T23:30:10.469Z,20.57
2023-05-09T23:32:38.536Z,23.75
2023-05-09T23:35:06.944Z,28.67
2023-05-09T23:37:35.315Z,25.30
2023-05-09T23:40:04.891Z,22.48
2023-05-09T23:42:33.725Z,22.65
2023-05-09T23:45:01.906Z,21.92
2023-05-09T23:47:33.995Z,27.70
2023-05-09T23:50:02.315Z,22.33
2023-05-09T23:52:31.969Z,20.02
2023-05-09T23:54:59.871Z,23.92
2023-05-09T23:57:28.088Z,27.25
2023-05-09T23:59:56.122Z,28.48
